San Francisco, California
Traffic Map
Current Weather Conditions
San Francisco, California
Scattered Clouds
Scattered Clouds
12°
Feels Like: 12°
Wind Chill: 12° Ceiling: Unl
Heat Index: 12° Visibility: 10mi
Dew Point: Wind: 8mph
Humidity: 72% Direction: 290° (WNW)
Pressure: 29.92in Gusts: 0mph
Raw Report DataKSFO 030356Z 29007KT 10SM FEW026 SCT080 12/07 A2992 RMK AO2 SLP132 T01220072
Traffic Incident Summary
Active as of:
Severity:
Category:
InformationThere was an issue retrieving the traffic information for this location. Please try a different location or try again shortly.
Advertisements
Track Severe Weather on mobile